createdAt,value
2023-03-26T00:01:33.510Z,100387.66
2023-03-26T00:04:05.735Z,100386.81
2023-03-26T00:06:39.128Z,100391.53
2023-03-26T00:09:10.053Z,100402.47
2023-03-26T00:11:38.015Z,100398.13
2023-03-26T00:14:06.404Z,100397.28
2023-03-26T00:16:34.636Z,100395.56
2023-03-26T00:19:04.125Z,100400.16
2023-03-26T00:21:33.016Z,100398.53
2023-03-26T00:24:04.863Z,100407.59
2023-03-26T00:26:33.930Z,100399.66
2023-03-26T00:29:03.840Z,100392.47
2023-03-26T00:31:35.918Z,100389.91
2023-03-26T00:34:05.795Z,100392.75
2023-03-26T00:36:35.872Z,100382.69
2023-03-26T00:39:05.561Z,100382.84
2023-03-26T00:41:37.033Z,100376.63
2023-03-26T00:44:05.437Z,100382.22
2023-03-26T00:46:33.321Z,100371.16
2023-03-26T00:49:03.972Z,100381.22
2023-03-26T00:51:34.630Z,100368.56
2023-03-26T00:54:02.537Z,100370.59
2023-03-26T00:56:30.751Z,100376.94
2023-03-26T00:59:00.254Z,100367.88
2023-03-26T01:01:30.234Z,100363.28
2023-03-26T01:06:36.174Z,100356.09
2023-03-26T01:09:15.893Z,100346.16
2023-03-26T01:11:44.128Z,100345.28
2023-03-26T01:14:14.475Z,100341.56
2023-03-26T01:16:49.838Z,100340.56
2023-03-26T01:19:24.994Z,100335.09
2023-03-26T01:21:54.212Z,100335.09
2023-03-26T01:24:23.547Z,100324.19
2023-03-26T01:27:10.988Z,100318.72
2023-03-26T01:29:52.666Z,100313.41
2023-03-26T01:32:30.877Z,100317.00
2023-03-26T01:35:14.438Z,100314.25
2023-03-26T01:37:53.519Z,100311.66
2023-03-26T01:40:28.027Z,100310.81
2023-03-26T01:43:00.031Z,100306.19
2023-03-26T01:45:33.137Z,100301.75
2023-03-26T01:48:01.439Z,100298.16
2023-03-26T01:50:29.421Z,100300.00
2023-03-26T01:52:57.392Z,100290.97
2023-03-26T01:55:34.347Z,100296.16
2023-03-26T01:58:11.937Z,100287.97
2023-03-26T02:00:46.289Z,100280.91
2023-03-26T02:03:24.781Z,100275.44
2023-03-26T02:05:58.410Z,100278.16
2023-03-26T02:08:35.188Z,100277.16
2023-03-26T02:11:11.556Z,100273.72
2023-03-26T02:13:41.005Z,100271.97
2023-03-26T02:16:12.052Z,100274.72
2023-03-26T02:18:39.917Z,100263.94
2023-03-26T02:21:12.221Z,100261.06
2023-03-26T02:23:42.503Z,100256.75
2023-03-26T02:26:12.407Z,100255.75
2023-03-26T02:28:52.662Z,100248.84
2023-03-26T02:31:21.785Z,100245.13
2023-03-26T02:33:50.009Z,100235.06
2023-03-26T02:36:22.103Z,100231.47
2023-03-26T02:38:50.317Z,100226.28
2023-03-26T02:41:19.470Z,100225.13
2023-03-26T02:44:09.094Z,100224.41
2023-03-26T02:47:12.114Z,100220.25
2023-03-26T02:49:55.165Z,100211.19
2023-03-26T02:52:43.204Z,100204.72
2023-03-26T02:55:11.146Z,100204.72
2023-03-26T02:57:42.418Z,100200.13
2023-03-26T03:00:22.057Z,100194.09
2023-03-26T03:02:57.846Z,100183.31
2023-03-26T03:05:31.959Z,100185.34
2023-03-26T03:08:28.099Z,100182.00
2023-03-26T03:11:17.699Z,100176.81
2023-03-26T03:13:49.002Z,100167.06
2023-03-26T03:16:20.926Z,100161.25
2023-03-26T03:18:54.176Z,100166.91
2023-03-26T03:21:24.172Z,100161.28
2023-03-26T03:23:52.221Z,100158.72
2023-03-26T03:26:22.643Z,100156.13
2023-03-26T03:28:57.761Z,100161.72
2023-03-26T03:31:27.174Z,100149.06
2023-03-26T03:34:00.773Z,100151.25
2023-03-26T03:36:33.308Z,100148.50
2023-03-26T03:39:10.902Z,100143.88
2023-03-26T03:41:38.782Z,100143.06
2023-03-26T03:44:13.318Z,100141.16
2023-03-26T03:46:41.329Z,100136.75
2023-03-26T03:49:09.170Z,100132.16
2023-03-26T03:51:38.846Z,100131.28
2023-03-26T03:54:35.599Z,100132.28
2023-03-26T03:57:11.662Z,100134.00
2023-03-26T03:59:47.606Z,100126.53
2023-03-26T04:02:26.651Z,100122.94
2023-03-26T04:04:59.222Z,100125.66
2023-03-26T04:07:31.035Z,100122.78
2023-03-26T04:10:10.261Z,100115.47
2023-03-26T04:12:59.265Z,100111.16
2023-03-26T04:15:55.242Z,100104.56
2023-03-26T04:18:24.259Z,100100.97
2023-03-26T04:20:52.176Z,100099.25
2023-03-26T04:23:26.652Z,100097.50
2023-03-26T04:26:18.608Z,100087.47
2023-03-26T04:29:05.727Z,100084.91
2023-03-26T04:31:36.299Z,100081.31
2023-03-26T04:34:08.390Z,100081.31
2023-03-26T04:36:46.298Z,100073.25
2023-03-26T04:39:15.141Z,100068.66
2023-03-26T04:42:01.554Z,100061.63
2023-03-26T04:44:38.439Z,100058.88
2023-03-26T04:47:12.059Z,100054.44
2023-03-26T04:49:47.310Z,100054.44
2023-03-26T04:52:16.964Z,100046.25
2023-03-26T04:55:04.101Z,100042.78
2023-03-26T04:57:38.808Z,100036.06
2023-03-26T05:00:19.478Z,100028.88
2023-03-26T05:02:59.740Z,100030.75
2023-03-26T05:05:28.712Z,100025.28
2023-03-26T05:07:59.090Z,100021.84
2023-03-26T05:10:27.135Z,100030.03
2023-03-26T05:13:03.936Z,100029.16
2023-03-26T05:15:35.907Z,100020.28
2023-03-26T05:18:25.388Z,100025.59
2023-03-26T05:20:55.952Z,100022.00
2023-03-26T05:23:24.430Z,100016.69
2023-03-26T05:26:01.700Z,100013.09
2023-03-26T05:28:29.553Z,100008.66
2023-03-26T05:31:07.450Z,100006.91
2023-03-26T05:33:40.618Z,100001.59
2023-03-26T05:36:15.242Z,99995.28
2023-03-26T05:38:52.246Z,99987.09
2023-03-26T05:41:40.360Z,99986.41
2023-03-26T05:44:08.333Z,99985.38
2023-03-26T05:47:27.315Z,99977.50
2023-03-26T05:49:56.788Z,99971.19
2023-03-26T05:52:24.814Z,99972.03
2023-03-26T05:55:35.186Z,99965.84
2023-03-26T05:58:21.691Z,99959.53
2023-03-26T06:01:18.061Z,99961.28
2023-03-26T06:04:06.505Z,99954.94
2023-03-26T06:06:41.249Z,99955.69
2023-03-26T06:09:09.349Z,99946.63
2023-03-26T06:11:37.080Z,99942.19
2023-03-26T06:14:06.078Z,99941.19
2023-03-26T06:16:35.141Z,99936.72
2023-03-26T06:19:32.614Z,99932.28
2023-03-26T06:22:13.924Z,99939.44
2023-03-26T06:25:01.910Z,99929.00
2023-03-26T06:27:50.313Z,99925.09
2023-03-26T06:30:37.151Z,99919.63
2023-03-26T06:33:17.700Z,99916.03
2023-03-26T06:35:49.960Z,99914.19
2023-03-26T06:38:19.782Z,99902.28
2023-03-26T06:40:47.803Z,99899.69
2023-03-26T06:43:27.602Z,99901.53
2023-03-26T06:46:14.253Z,99902.53
2023-03-26T06:49:00.803Z,99901.00
2023-03-26T06:51:50.776Z,99889.38
2023-03-26T06:54:44.437Z,99887.50
2023-03-26T06:57:45.243Z,99880.59
2023-03-26T07:00:39.466Z,99875.13
2023-03-26T07:03:26.312Z,99876.31
2023-03-26T07:06:12.617Z,99872.88
2023-03-26T07:08:58.985Z,99871.28
2023-03-26T07:11:30.944Z,99869.41
2023-03-26T07:14:34.213Z,99868.13
2023-03-26T07:17:20.933Z,99870.13
2023-03-26T07:20:15.025Z,99869.41
2023-03-26T07:22:43.944Z,99871.13
2023-03-26T07:25:18.958Z,99872.84
2023-03-26T07:28:14.319Z,99873.59
2023-03-26T07:31:27.278Z,99869.00
2023-03-26T07:34:23.043Z,99864.41
2023-03-26T07:37:13.910Z,99855.09
2023-03-26T07:40:00.254Z,99858.50
2023-03-26T07:43:02.207Z,99847.59
2023-03-26T07:46:04.283Z,99850.47
2023-03-26T07:48:58.252Z,99840.41
2023-03-26T07:51:37.532Z,99832.25
2023-03-26T07:54:17.540Z,99833.84
2023-03-26T07:57:06.798Z,99833.69
2023-03-26T07:59:58.582Z,99831.81
2023-03-26T08:03:10.480Z,99831.09
2023-03-26T08:06:12.033Z,99840.28
2023-03-26T08:09:03.483Z,99831.25
2023-03-26T08:11:59.282Z,99833.41
2023-03-26T08:14:38.819Z,99834.97
2023-03-26T08:17:12.917Z,99833.28
2023-03-26T08:19:59.198Z,99825.94
2023-03-26T08:22:30.380Z,99823.38
2023-03-26T08:25:13.809Z,99823.19
2023-03-26T08:27:43.873Z,99820.66
2023-03-26T08:30:18.387Z,99819.66
2023-03-26T08:32:53.942Z,99822.19
2023-03-26T08:35:23.370Z,99825.09
2023-03-26T08:37:51.832Z,99820.66
2023-03-26T08:40:34.991Z,99813.16
2023-03-26T08:43:24.634Z,99817.47
2023-03-26T08:46:33.853Z,99814.03
2023-03-26T08:49:16.936Z,99818.94
2023-03-26T08:52:17.277Z,99812.63
2023-03-26T08:54:58.087Z,99812.47
2023-03-26T08:57:56.479Z,99809.88
2023-03-26T09:00:40.805Z,99808.03
2023-03-26T09:03:50.497Z,99803.56
2023-03-26T09:06:37.659Z,99808.16
2023-03-26T09:09:40.820Z,99801.84
2023-03-26T09:12:51.041Z,99798.84
2023-03-26T09:15:52.398Z,99811.03
2023-03-26T09:18:59.048Z,99807.44
2023-03-26T09:22:06.438Z,99798.72
2023-03-26T09:24:58.578Z,99796.84
2023-03-26T09:27:40.764Z,99793.41
2023-03-26T09:30:33.765Z,99788.94
2023-03-26T09:33:29.535Z,99793.53
2023-03-26T09:36:22.519Z,99787.94
2023-03-26T09:38:57.963Z,99781.06
2023-03-26T09:41:37.858Z,99786.22
2023-03-26T09:44:40.322Z,99777.63
2023-03-26T09:48:05.455Z,99777.06
2023-03-26T09:50:53.212Z,99778.78
2023-03-26T09:53:42.051Z,99772.47
2023-03-26T09:56:39.733Z,99776.91
2023-03-26T09:59:58.972Z,99762.25
2023-03-26T10:02:51.683Z,99769.28
2023-03-26T10:05:30.074Z,99772.00
2023-03-26T10:08:33.531Z,99766.56
2023-03-26T10:11:10.369Z,99763.25
2023-03-26T10:13:52.979Z,99764.97
2023-03-26T10:16:31.734Z,99757.94
2023-03-26T10:19:19.355Z,99757.09
2023-03-26T10:21:56.339Z,99750.91
2023-03-26T10:24:41.383Z,99745.47
2023-03-26T10:27:31.163Z,99741.19
2023-03-26T10:30:26.814Z,99744.31
2023-03-26T10:33:04.338Z,99736.00
2023-03-26T10:35:46.412Z,99738.75
2023-03-26T10:38:28.631Z,99738.19
2023-03-26T10:41:04.618Z,99736.47
2023-03-26T10:44:08.498Z,99726.97
2023-03-26T10:46:59.610Z,99729.88
2023-03-26T10:49:50.204Z,99727.16
2023-03-26T10:52:22.778Z,99713.66
2023-03-26T10:54:57.121Z,99718.25
2023-03-26T10:57:36.848Z,99715.41
2023-03-26T11:00:17.858Z,99708.22
2023-03-26T11:03:01.613Z,99714.53
2023-03-26T11:05:49.977Z,99715.41
2023-03-26T11:08:31.487Z,99718.13
2023-03-26T11:11:06.549Z,99713.53
2023-03-26T11:13:54.803Z,99716.09
2023-03-26T11:16:30.312Z,99703.31
2023-03-26T11:19:08.547Z,99709.63
2023-03-26T11:21:46.941Z,99706.06
2023-03-26T11:24:34.609Z,99714.09
2023-03-26T11:27:15.182Z,99706.06
2023-03-26T11:29:51.848Z,99708.63
2023-03-26T11:32:24.106Z,99692.28
2023-03-26T11:35:02.310Z,99696.00
2023-03-26T11:37:39.182Z,99694.16
2023-03-26T11:40:14.438Z,99694.16
2023-03-26T11:42:44.523Z,99695.16
2023-03-26T11:45:18.444Z,99690.56
2023-03-26T11:47:51.682Z,99687.28
2023-03-26T11:50:26.457Z,99690.88
2023-03-26T11:52:58.324Z,99692.16
2023-03-26T11:55:27.582Z,99696.59
2023-03-26T11:57:59.432Z,99699.31
2023-03-26T12:00:31.260Z,99700.59
2023-03-26T12:03:00.739Z,99689.56
2023-03-26T12:05:49.145Z,99694.75
2023-03-26T12:08:23.005Z,99694.03
2023-03-26T12:11:06.468Z,99688.16
2023-03-26T12:13:38.165Z,99694.88
2023-03-26T12:16:13.102Z,99691.88
2023-03-26T12:18:43.699Z,99692.16
2023-03-26T12:21:14.832Z,99696.59
2023-03-26T12:23:56.153Z,99695.00
2023-03-26T12:26:34.084Z,99693.28
2023-03-26T12:29:09.355Z,99690.28
2023-03-26T12:32:06.072Z,99696.88
2023-03-26T12:34:36.192Z,99687.72
2023-03-26T12:37:07.351Z,99691.88
2023-03-26T12:40:07.191Z,99695.16
2023-03-26T12:44:43.302Z,99685.38
2023-03-26T12:45:24.072Z,99694.16
2023-03-26T12:48:01.640Z,99694.56
2023-03-26T12:50:48.122Z,99696.41
2023-03-26T12:53:34.860Z,99699.47
2023-03-26T12:56:15.545Z,99704.75
2023-03-26T12:58:59.358Z,99699.72
2023-03-26T13:01:40.999Z,99700.44
2023-03-26T13:04:23.288Z,99706.75
2023-03-26T13:07:01.963Z,99709.47
2023-03-26T13:10:00.904Z,99709.47
2023-03-26T13:12:41.081Z,99709.03
2023-03-26T13:15:24.810Z,99713.50
2023-03-26T13:18:06.246Z,99704.31
2023-03-26T13:20:50.445Z,99711.19
2023-03-26T13:23:30.617Z,99716.09
2023-03-26T13:26:11.147Z,99721.81
2023-03-26T13:28:47.818Z,99715.34
2023-03-26T13:31:23.307Z,99718.63
2023-03-26T13:33:59.920Z,99716.63
2023-03-26T13:36:37.462Z,99719.06
2023-03-26T13:39:17.110Z,99719.78
2023-03-26T13:42:00.969Z,99718.59
2023-03-26T13:44:38.595Z,99725.06
2023-03-26T13:47:11.818Z,99718.47
2023-03-26T13:49:44.854Z,99726.22
2023-03-26T13:52:14.296Z,99721.53
2023-03-26T13:54:48.152Z,99722.78
2023-03-26T13:57:24.143Z,99722.16
2023-03-26T13:59:57.391Z,99728.34
2023-03-26T14:02:33.379Z,99726.16
2023-03-26T14:05:08.189Z,99730.47
2023-03-26T14:07:41.924Z,99725.72
2023-03-26T14:10:13.644Z,99731.91
2023-03-26T14:12:57.671Z,99735.19
2023-03-26T14:15:29.215Z,99730.44
2023-03-26T14:18:07.472Z,99732.88
2023-03-26T14:20:57.711Z,99743.47
2023-03-26T14:23:54.235Z,99741.47
2023-03-26T14:26:37.256Z,99739.59
2023-03-26T14:29:39.735Z,99740.75
2023-03-26T14:32:46.897Z,99742.19
2023-03-26T14:35:29.425Z,99744.91
2023-03-26T14:38:32.962Z,99747.63
2023-03-26T14:41:07.382Z,99752.75
2023-03-26T14:44:00.904Z,99754.81
2023-03-26T14:46:41.965Z,99759.81
2023-03-26T14:49:38.274Z,99756.22
2023-03-26T14:52:13.444Z,99759.66
2023-03-26T14:54:45.013Z,99759.66
2023-03-26T14:57:35.454Z,99764.41
2023-03-26T15:00:47.196Z,99769.00
2023-03-26T15:03:56.154Z,99774.16
2023-03-26T15:07:18.723Z,99779.91
2023-03-26T15:10:26.413Z,99786.50
2023-03-26T15:13:32.571Z,99788.09
2023-03-26T15:16:12.685Z,99782.19
2023-03-26T15:19:32.733Z,99799.56
2023-03-26T15:22:37.708Z,99791.41
2023-03-26T15:25:39.835Z,99797.00
2023-03-26T15:28:43.042Z,99799.56
2023-03-26T15:31:31.724Z,99813.22
2023-03-26T15:34:35.149Z,99806.75
2023-03-26T15:37:39.203Z,99819.69
2023-03-26T15:40:36.298Z,99821.53
2023-03-26T15:43:11.554Z,99824.81
2023-03-26T15:45:42.669Z,99830.28
2023-03-26T15:48:34.218Z,99837.63
2023-03-26T15:51:46.996Z,99836.03
2023-03-26T15:54:39.598Z,99853.44
2023-03-26T15:57:17.663Z,99856.88
2023-03-26T16:00:16.323Z,99854.84
2023-03-26T16:02:53.722Z,99856.88
2023-03-26T16:05:34.621Z,99864.91
2023-03-26T16:08:11.055Z,99871.38
2023-03-26T16:10:48.339Z,99875.97
2023-03-26T16:13:38.796Z,99884.16
2023-03-26T16:16:40.589Z,99885.44
2023-03-26T16:19:49.436Z,99887.44
2023-03-26T16:22:42.365Z,99899.53
2023-03-26T16:25:27.442Z,99903.66
2023-03-26T16:28:32.540Z,99903.25
2023-03-26T16:31:36.909Z,99913.03
2023-03-26T16:34:23.472Z,99918.50
2023-03-26T16:36:54.426Z,99922.22
2023-03-26T16:39:39.097Z,99920.34
2023-03-26T16:42:29.306Z,99929.53
2023-03-26T16:45:17.527Z,99930.41
2023-03-26T16:47:55.319Z,99943.19
2023-03-26T16:50:32.669Z,99944.31
2023-03-26T16:53:17.075Z,99957.09
2023-03-26T16:55:52.780Z,99966.28
2023-03-26T16:58:31.567Z,99975.47
2023-03-26T17:01:09.878Z,99981.94
2023-03-26T17:03:50.912Z,99983.97
2023-03-26T17:06:48.428Z,99983.22
2023-03-26T17:09:26.951Z,99989.81
2023-03-26T17:12:01.942Z,100004.47
2023-03-26T17:14:48.872Z,100006.31
2023-03-26T17:17:37.335Z,100013.81
2023-03-26T17:20:17.590Z,100023.00
2023-03-26T17:22:51.408Z,100024.13
2023-03-26T17:25:36.208Z,100038.91
2023-03-26T17:28:35.323Z,100049.09
2023-03-26T17:31:06.656Z,100056.56
2023-03-26T17:33:38.861Z,100061.16
2023-03-26T17:36:29.467Z,100070.47
2023-03-26T17:39:20.509Z,100075.06
2023-03-26T17:41:56.128Z,100086.13
2023-03-26T17:44:51.288Z,100083.53
2023-03-26T17:47:26.361Z,100090.84
2023-03-26T17:50:06.308Z,100090.84
2023-03-26T17:52:50.557Z,100091.84
2023-03-26T17:55:21.494Z,100103.75
2023-03-26T17:57:54.291Z,100101.88
2023-03-26T18:00:26.101Z,100115.66
2023-03-26T18:02:57.374Z,100119.13
2023-03-26T18:05:30.545Z,100120.84
2023-03-26T18:08:16.050Z,100136.19
2023-03-26T18:11:12.262Z,100135.59
2023-03-26T18:13:59.989Z,100142.66
2023-03-26T18:16:38.638Z,100149.97
2023-03-26T18:19:18.386Z,100152.56
2023-03-26T18:21:50.340Z,100161.88
2023-03-26T18:24:22.450Z,100161.13
2023-03-26T18:26:55.225Z,100171.19
2023-03-26T18:29:25.152Z,100177.50
2023-03-26T18:31:56.164Z,100182.94
2023-03-26T18:34:26.164Z,100184.81
2023-03-26T18:37:14.809Z,100192.28
2023-03-26T18:39:43.532Z,100193.53
2023-03-26T18:42:23.636Z,100207.78
2023-03-26T18:44:59.610Z,100214.63
2023-03-26T18:47:32.848Z,100215.59
2023-03-26T18:50:01.182Z,100231.97
2023-03-26T18:52:33.050Z,100222.09
2023-03-26T18:55:03.992Z,100227.81
2023-03-26T18:57:32.406Z,100249.75
2023-03-26T19:00:16.322Z,100247.88
2023-03-26T19:02:46.062Z,100252.72
2023-03-26T19:05:16.747Z,100261.91
2023-03-26T19:07:47.575Z,100271.22
2023-03-26T19:10:23.698Z,100269.34
2023-03-26T19:12:59.211Z,100270.34
2023-03-26T19:15:29.374Z,100273.28
2023-03-26T19:18:03.973Z,100281.47
2023-03-26T19:20:39.273Z,100284.34
2023-03-26T19:23:13.829Z,100292.66
2023-03-26T19:25:44.726Z,100299.97
2023-03-26T19:28:19.319Z,100299.09
2023-03-26T19:30:48.137Z,100308.41
2023-03-26T19:33:19.598Z,100307.28
2023-03-26T19:35:54.180Z,100314.72
2023-03-26T19:38:27.262Z,100323.75
2023-03-26T19:41:00.518Z,100329.47
2023-03-26T19:43:28.625Z,100334.03
2023-03-26T19:46:01.210Z,100343.09
2023-03-26T19:51:18.748Z,100339.66
2023-03-26T19:51:31.816Z,100346.22
2023-03-26T19:54:04.046Z,100353.41
2023-03-26T19:56:33.862Z,100363.69
2023-03-26T19:59:02.259Z,100365.41
2023-03-26T20:01:31.864Z,100365.28
2023-03-26T20:04:04.161Z,100370.88
2023-03-26T20:06:42.430Z,100370.28
2023-03-26T20:09:14.143Z,100373.84
2023-03-26T20:11:42.278Z,100383.16
2023-03-26T20:14:15.437Z,100377.59
2023-03-26T20:16:45.379Z,100394.31
2023-03-26T20:19:14.049Z,100398.00
2023-03-26T20:21:42.343Z,100406.31
2023-03-26T20:24:15.658Z,100420.78
2023-03-26T20:26:43.906Z,100415.63
2023-03-26T20:29:11.797Z,100415.75
2023-03-26T20:31:41.374Z,100425.78
2023-03-26T20:34:16.892Z,100436.66
2023-03-26T20:36:45.551Z,100435.34
2023-03-26T20:39:14.760Z,100434.47
2023-03-26T20:41:45.988Z,100446.34
2023-03-26T20:44:16.638Z,100451.03
2023-03-26T20:46:45.544Z,100451.16
2023-03-26T20:49:15.020Z,100446.84
2023-03-26T20:51:44.557Z,100459.72
2023-03-26T20:54:17.974Z,100459.63
2023-03-26T20:56:47.638Z,100467.16
2023-03-26T20:59:22.590Z,100479.91
2023-03-26T21:01:51.823Z,100479.31
2023-03-26T21:04:20.655Z,100485.84
2023-03-26T21:06:48.903Z,100495.13
2023-03-26T21:09:23.818Z,100507.88
2023-03-26T21:12:01.645Z,100504.44
2023-03-26T21:14:34.335Z,100512.09
2023-03-26T21:17:03.457Z,100518.78
2023-03-26T21:19:31.976Z,100526.94
2023-03-26T21:22:08.178Z,100532.41
2023-03-26T21:24:50.651Z,100547.22
2023-03-26T21:27:26.459Z,100553.03
2023-03-26T21:29:55.310Z,100556.75
2023-03-26T21:32:24.355Z,100556.38
2023-03-26T21:34:58.552Z,100561.94
2023-03-26T21:37:27.954Z,100576.03
2023-03-26T21:39:57.852Z,100582.69
2023-03-26T21:42:29.243Z,100584.66
2023-03-26T21:44:57.740Z,100582.31
2023-03-26T21:47:26.355Z,100589.72
2023-03-26T21:49:55.122Z,100601.69
2023-03-26T21:52:23.948Z,100607.28
2023-03-26T21:54:52.561Z,100607.50
2023-03-26T21:57:44.794Z,100618.59
2023-03-26T22:00:16.240Z,100618.84
2023-03-26T22:02:57.304Z,100621.69
2023-03-26T22:05:38.815Z,100636.50
2023-03-26T22:08:08.266Z,100643.91
2023-03-26T22:10:37.039Z,100654.03
2023-03-26T22:13:06.246Z,100662.31
2023-03-26T22:15:35.450Z,100664.28
2023-03-26T22:18:04.119Z,100667.84
2023-03-26T22:20:32.090Z,100683.31
2023-03-26T22:23:00.967Z,100688.75
2023-03-26T22:25:28.810Z,100693.31
2023-03-26T22:27:57.400Z,100696.91
2023-03-26T22:30:27.207Z,100695.81
2023-03-26T22:32:55.656Z,100705.84
2023-03-26T22:35:23.553Z,100706.69
2023-03-26T22:37:51.461Z,100714.00
2023-03-26T22:40:20.553Z,100716.72
2023-03-26T22:42:48.433Z,100725.84
2023-03-26T22:45:17.234Z,100735.09
2023-03-26T22:47:46.570Z,100735.09
2023-03-26T22:50:14.431Z,100741.66
2023-03-26T22:52:42.484Z,100744.38
2023-03-26T22:55:11.979Z,100755.25
2023-03-26T22:57:39.861Z,100750.09
2023-03-26T23:00:16.116Z,100753.59
2023-03-26T23:02:45.865Z,100754.66
2023-03-26T23:05:17.500Z,100758.25
2023-03-26T23:07:45.967Z,100774.81
2023-03-26T23:10:14.279Z,100780.25
2023-03-26T23:12:42.379Z,100793.00
2023-03-26T23:15:11.142Z,100795.81
2023-03-26T23:17:39.661Z,100797.66
2023-03-26T23:20:14.596Z,100804.94
2023-03-26T23:22:44.814Z,100809.50
2023-03-26T23:25:13.505Z,100816.03
2023-03-26T23:27:41.561Z,100820.72
2023-03-26T23:30:11.818Z,100824.44
2023-03-26T23:32:40.716Z,100827.16
2023-03-26T23:35:09.118Z,100843.47
2023-03-26T23:37:38.803Z,100835.50
2023-03-26T23:40:10.449Z,100846.28
2023-03-26T23:42:38.818Z,100858.13
2023-03-26T23:45:08.429Z,100855.53
2023-03-26T23:47:37.220Z,100867.38
2023-03-26T23:50:06.205Z,100870.97
2023-03-26T23:52:33.972Z,100868.38
2023-03-26T23:55:02.049Z,100880.09
2023-03-26T23:57:31.825Z,100878.25
2023-03-26T23:59:59.607Z,100891.97
